Time;durP1;ratioP1;P1;durP2;ratioP2;P2;SDS_P1;SDS_P2;PMS_P1;PMS_P2;Temp;Humidity;BMP_temperature;BMP_pressure;BME280_temperature;BME280_humidity;BME280_pressure;Samples;Min_cycle;Max_cycle;Signal;HPM_P1;HPM_P2
2023/04/19 00:01:40;;;;;;;9.40;4.38;;;;;;;13.61;58.67;101176.00;10175718;29;20048;-62
2023/04/19 00:06:41;;;;;;;6.47;4.35;;;;;;;13.61;58.62;101166.03;10177432;29;20053;-61
2023/04/19 00:11:42;;;;;;;10.85;5.97;;;;;;;13.60;58.78;101160.78;10187090;29;20036;-62
2023/04/19 00:16:44;;;;;;;7.10;4.68;;;;;;;13.56;58.81;101156.75;10179551;29;20052;-62
2023/04/19 00:21:45;;;;;;;9.57;5.63;;;;;;;13.48;59.03;101153.06;10186821;29;20052;-67
2023/04/19 00:26:46;;;;;;;11.57;6.75;;;;;;;13.45;59.20;101149.91;10185888;29;20052;-62
2023/04/19 00:31:48;;;;;;;10.25;6.53;;;;;;;13.43;59.25;101160.03;10186836;29;20626;-62
2023/04/19 00:36:49;;;;;;;10.45;6.40;;;;;;;13.37;59.49;101149.91;10186519;29;20511;-62
2023/04/19 00:41:51;;;;;;;11.60;6.63;;;;;;;13.41;59.40;101135.88;10190323;29;20059;-62
2023/04/19 00:46:55;;;;;;;12.63;7.60;;;;;;;13.36;59.58;101140.13;10186293;29;20052;-62
2023/04/19 00:51:56;;;;;;;13.13;7.53;;;;;;;13.24;59.75;101135.06;10185790;29;20056;-62
2023/04/19 00:56:58;;;;;;;11.73;7.80;;;;;;;13.27;59.77;101142.00;10187969;29;20052;-62
2023/04/19 01:02:00;;;;;;;11.27;7.47;;;;;;;13.22;59.63;101129.00;10185710;29;20056;-62
2023/04/19 01:07:02;;;;;;;11.43;6.93;;;;;;;13.19;59.79;101128.50;10189003;29;20093;-62
2023/04/19 01:12:03;;;;;;;13.15;7.85;;;;;;;13.21;59.66;101119.22;10167539;29;20052;-62
2023/04/19 01:17:06;;;;;;;10.57;7.78;;;;;;;13.08;60.44;101105.44;10183576;29;20058;-62
2023/04/19 01:22:08;;;;;;;11.30;7.25;;;;;;;13.04;60.28;101115.72;10184477;29;20063;-63
2023/04/19 01:27:10;;;;;;;11.43;7.65;;;;;;;13.04;60.32;101109.50;10189415;29;20053;-62
2023/04/19 01:32:14;;;;;;;15.02;8.30;;;;;;;13.01;60.40;101107.13;10182482;29;20059;-62
2023/04/19 01:37:15;;;;;;;12.80;7.90;;;;;;;13.03;60.50;101105.97;10186747;29;20049;-62
2023/04/19 01:42:17;;;;;;;12.73;8.60;;;;;;;13.08;60.67;101102.75;10192361;29;20063;-62
2023/04/19 01:47:18;;;;;;;11.18;7.72;;;;;;;13.09;60.31;101091.78;10190764;29;20135;-62
2023/04/19 01:52:19;;;;;;;12.32;7.93;;;;;;;13.09;60.65;101086.38;10186225;29;20052;-62
2023/04/19 01:57:21;;;;;;;12.68;7.25;;;;;;;13.05;60.81;101085.03;10185102;29;20044;-62
2023/04/19 02:02:22;;;;;;;11.07;7.32;;;;;;;13.02;61.01;101087.25;10184277;29;20048;-62
2023/04/19 02:07:24;;;;;;;11.35;7.43;;;;;;;13.04;60.66;101077.94;10179006;29;20045;-61
2023/04/19 02:12:30;;;;;;;11.27;6.82;;;;;;;13.06;61.01;101069.69;10190962;29;20048;-62
2023/04/19 02:17:31;;;;;;;9.77;6.57;;;;;;;13.04;61.12;101072.53;10186963;29;20096;-62
2023/04/19 02:22:32;;;;;;;10.02;6.93;;;;;;;12.98;61.48;101072.41;10186663;29;20080;-62
2023/04/19 02:27:34;;;;;;;11.45;6.50;;;;;;;12.99;61.32;101072.22;10183269;29;20041;-62
2023/04/19 02:32:35;;;;;;;12.73;7.50;;;;;;;12.92;61.51;101073.94;10182926;29;20072;-62
2023/04/19 02:37:36;;;;;;;10.63;7.28;;;;;;;12.92;61.82;101067.72;10184044;29;20044;-62
2023/04/19 02:42:38;;;;;;;10.82;7.25;;;;;;;12.96;61.61;101060.94;10166652;29;20049;-61
2023/04/19 02:47:39;;;;;;;10.75;7.03;;;;;;;12.93;61.46;101056.72;10184363;29;20075;-62
2023/04/19 02:52:41;;;;;;;13.15;8.20;;;;;;;12.92;61.49;101057.75;10181809;29;20112;-63
2023/04/19 02:57:42;;;;;;;12.55;8.60;;;;;;;12.87;61.82;101063.69;10184576;29;20813;-62
2023/04/19 03:02:43;;;;;;;14.88;9.15;;;;;;;12.83;62.01;101062.31;10177083;29;20064;-62
2023/04/19 03:07:45;;;;;;;13.73;8.50;;;;;;;12.80;62.38;101053.75;10182294;29;20119;-62
2023/04/19 03:12:46;;;;;;;14.18;8.65;;;;;;;12.81;62.44;101047.31;10183360;29;20298;-62
2023/04/19 03:17:48;;;;;;;15.30;8.48;;;;;;;12.84;62.16;101050.53;10182140;29;20063;-62
2023/04/19 03:22:49;;;;;;;12.50;8.55;;;;;;;12.84;62.29;101045.13;10183285;29;20068;-62
2023/04/19 03:27:51;;;;;;;12.75;9.02;;;;;;;12.89;62.47;101041.91;10182156;29;20052;-62
2023/04/19 03:32:52;;;;;;;14.13;9.43;;;;;;;13.02;62.16;101034.09;10178471;29;20084;-61
2023/04/19 03:37:53;;;;;;;13.80;9.38;;;;;;;12.96;62.46;101033.97;10177317;29;20055;-62
2023/04/19 03:42:55;;;;;;;15.48;10.18;;;;;;;12.89;62.79;101021.19;10181940;29;20052;-61
2023/04/19 03:47:56;;;;;;;13.70;10.18;;;;;;;12.83;63.65;101019.16;10182017;29;20055;-62
2023/04/19 03:52:57;;;;;;;14.32;9.25;;;;;;;12.87;63.39;101015.13;10177574;29;20265;-62
2023/04/19 03:57:59;;;;;;;16.20;9.80;;;;;;;12.80;63.56;101008.72;10177984;29;20040;-62
2023/04/19 04:03:01;;;;;;;13.23;9.00;;;;;;;12.74;64.36;101013.94;10180269;29;20088;-62
2023/04/19 04:08:02;;;;;;;18.27;10.07;;;;;;;12.80;64.14;101014.13;10180691;29;20044;-63
2023/04/19 04:13:04;;;;;;;15.75;9.82;;;;;;;12.86;64.34;101016.13;10185006;29;20104;-62
2023/04/19 04:18:05;;;;;;;15.63;9.63;;;;;;;12.83;64.34;101021.84;10181918;29;20045;-63
2023/04/19 04:23:09;;;;;;;18.40;10.20;;;;;;;12.83;64.01;101021.84;10174714;29;20075;-66
2023/04/19 04:28:11;;;;;;;14.70;10.55;;;;;;;12.85;64.14;101024.38;10144502;29;20059;-65
2023/04/19 04:33:12;;;;;;;19.58;10.20;;;;;;;12.90;64.26;101030.94;10141051;29;20056;-65
2023/04/19 04:38:14;;;;;;;13.85;9.82;;;;;;;12.93;64.02;101010.00;10139669;29;20139;-66
2023/04/19 04:43:28;;;;;;;14.95;9.63;;;;;;;13.02;63.74;101017.06;10138923;29;20552;-65
2023/04/19 04:48:30;;;;;;;17.08;10.60;;;;;;;13.02;63.59;101025.16;10138392;29;20041;-65
2023/04/19 04:53:31;;;;;;;14.68;9.40;;;;;;;12.98;63.47;101019.28;10140662;29;20056;-65
2023/04/19 04:58:33;;;;;;;18.88;9.75;;;;;;;12.97;63.57;101019.44;10151004;29;20052;-65
2023/04/19 05:03:34;;;;;;;16.52;10.18;;;;;;;12.97;63.46;101016.75;10146507;29;20129;-66
2023/04/19 05:08:35;;;;;;;14.63;9.15;;;;;;;12.97;63.13;101017.56;10152037;29;20048;-65
2023/04/19 05:13:37;;;;;;;14.43;9.43;;;;;;;13.02;63.08;101015.19;10149852;29;20095;-66
2023/04/19 05:18:38;;;;;;;13.52;8.85;;;;;;;12.98;63.26;101011.16;10153787;29;20051;-66
2023/04/19 05:23:40;;;;;;;11.48;7.90;;;;;;;12.97;62.97;101017.56;10149077;29;20143;-65
2023/04/19 05:28:43;;;;;;;12.43;7.70;;;;;;;12.97;63.21;101012.19;10145540;29;20114;-65
2023/04/19 05:33:44;;;;;;;11.65;7.78;;;;;;;13.04;63.00;101005.06;10146642;29;20140;-65
2023/04/19 05:38:45;;;;;;;11.30;7.32;;;;;;;12.99;62.86;101007.44;10146223;29;20063;-61
2023/04/19 05:43:47;;;;;;;11.82;7.18;;;;;;;13.01;62.69;101008.13;10141427;29;20143;-60
2023/04/19 05:48:48;;;;;;;11.10;7.05;;;;;;;13.05;62.56;101003.19;10148043;29;20176;-60
2023/04/19 05:53:50;;;;;;;11.85;7.35;;;;;;;13.13;61.85;100992.41;10144499;29;20511;-60
2023/04/19 05:58:51;;;;;;;11.35;6.88;;;;;;;13.11;62.11;101002.50;10149355;29;20036;-60
2023/04/19 06:03:53;;;;;;;9.35;6.18;;;;;;;13.19;61.82;100996.22;10146082;29;20559;-61
2023/04/19 06:08:54;;;;;;;8.73;6.10;;;;;;;13.22;61.66;100996.72;10141135;29;20088;-60
2023/04/19 06:13:56;;;;;;;9.77;5.95;;;;;;;13.26;61.35;101000.72;10145372;29;20112;-60
2023/04/19 06:18:57;;;;;;;9.77;4.95;;;;;;;13.29;60.93;100999.56;10136823;29;20080;-60
2023/04/19 06:23:59;;;;;;;9.57;6.70;;;;;;;13.30;60.56;101001.25;10142455;29;20048;-60
2023/04/19 06:29:00;;;;;;;10.52;4.60;;;;;;;13.28;60.05;101006.78;10141552;29;20069;-66
2023/04/19 06:34:02;;;;;;;7.35;4.10;;;;;;;13.16;60.50;101005.50;10149894;29;20111;-65
2023/04/19 06:39:04;;;;;;;5.88;3.97;;;;;;;13.28;59.86;101004.09;10142285;29;20052;-66
2023/04/19 06:44:05;;;;;;;7.07;3.90;;;;;;;13.28;59.67;101004.09;10129549;29;20080;-65
2023/04/19 06:49:06;;;;;;;9.38;3.53;;;;;;;13.25;59.29;101000.91;10146646;29;20086;-66
2023/04/19 06:54:08;;;;;;;4.25;2.63;;;;;;;13.21;59.17;101002.28;10141476;29;20084;-66
2023/04/19 06:59:10;;;;;;;5.47;3.15;;;;;;;13.24;58.71;101005.47;10138515;29;20057;-66
2023/04/19 07:04:12;;;;;;;4.43;2.75;;;;;;;13.15;58.85;101009.25;10142389;29;20085;-66
2023/04/19 07:09:14;;;;;;;6.38;3.42;;;;;;;13.31;57.90;101007.50;10146533;29;20116;-66
2023/04/19 07:14:18;;;;;;;8.48;4.30;;;;;;;13.28;58.12;101003.25;10144787;29;20052;-65
2023/04/19 07:19:21;;;;;;;4.80;3.00;;;;;;;13.36;57.17;100999.72;10146135;29;20056;-66
2023/04/19 07:24:22;;;;;;;4.40;3.05;;;;;;;13.48;56.88;100990.16;10139945;29;20060;-65
2023/04/19 07:29:24;;;;;;;5.72;2.72;;;;;;;13.46;56.49;100984.94;10126138;29;20059;-65
2023/04/19 07:34:25;;;;;;;3.38;2.28;;;;;;;13.79;55.96;100979.31;10139415;29;20116;-66
2023/04/19 07:39:26;;;;;;;3.78;2.15;;;;;;;13.93;55.39;100977.66;10142088;29;20140;-65
2023/04/19 07:44:28;;;;;;;3.63;2.13;;;;;;;13.95;55.22;100977.47;10136130;29;20052;-62
2023/04/19 07:49:32;;;;;;;3.35;2.38;;;;;;;14.11;55.23;100984.59;10177150;29;20084;-64
2023/04/19 07:54:34;;;;;;;3.40;1.80;;;;;;;14.05;54.80;100967.25;10175601;29;20048;-65
2023/04/19 07:59:36;;;;;;;2.88;2.30;;;;;;;14.15;54.44;100958.88;10171818;29;20071;-61
2023/04/19 08:04:38;;;;;;;3.63;2.42;;;;;;;14.19;54.07;100947.50;10146238;29;20136;-60
2023/04/19 08:09:40;;;;;;;3.90;1.95;;;;;;;14.16;54.23;100956.00;10138607;29;20641;-63
2023/04/19 08:14:41;;;;;;;4.38;2.03;;;;;;;14.17;53.46;100962.22;10176040;29;20072;-63
2023/04/19 08:19:56;;;;;;;4.53;2.00;;;;;;;14.22;53.37;100966.06;10177103;29;20142;-63
2023/04/19 08:24:58;;;;;;;4.50;2.20;;;;;;;14.34;53.17;100962.91;10172607;29;20063;-62
2023/04/19 08:29:59;;;;;;;2.78;1.92;;;;;;;14.41;52.71;100956.56;10179742;29;20056;-64
2023/04/19 08:35:01;;;;;;;3.97;1.92;;;;;;;14.57;52.62;100955.56;10181516;29;20056;-62
2023/04/19 08:40:03;;;;;;;3.83;2.15;;;;;;;14.55;52.45;100956.75;10179261;29;20127;-64
2023/04/19 08:45:05;;;;;;;2.75;1.77;;;;;;;14.80;51.84;100951.91;10172073;29;20054;-64
2023/04/19 08:50:09;;;;;;;4.97;2.55;;;;;;;14.90;51.47;100935.38;10177027;29;20112;-65
2023/04/19 08:55:29;;;;;;;4.97;2.53;;;;;;;14.91;51.06;100940.59;10182816;29;20276;-62
2023/04/19 09:00:32;;;;;;;4.30;2.75;;;;;;;15.01;50.56;100935.72;10179290;29;20444;-61
2023/04/19 09:05:34;;;;;;;3.60;2.28;;;;;;;15.18;50.63;100943.59;10162801;29;20081;-62
2023/04/19 09:10:51;;;;;;;6.72;2.60;;;;;;;15.57;50.07;100934.19;10176760;29;20077;-62
2023/04/19 09:15:52;;;;;;;4.28;2.78;;;;;;;15.44;49.98;100930.34;10182341;29;20052;-60
2023/04/19 09:20:56;;;;;;;5.68;3.15;;;;;;;15.57;49.84;100926.91;10175694;29;20056;-64
2023/04/19 09:26:00;;;;;;;4.88;2.53;;;;;;;15.71;49.48;100922.44;10174777;29;20111;-60
2023/04/19 09:31:12;;;;;;;3.85;2.70;;;;;;;15.93;48.67;100906.16;10179180;29;20747;-62
2023/04/19 09:36:34;;;;;;;3.67;2.30;;;;;;;15.93;48.73;100922.44;10175463;29;20048;-62
2023/04/19 09:41:51;;;;;;;3.70;2.33;;;;;;;16.17;48.21;100907.56;10176765;29;20067;-63
2023/04/19 09:46:52;;;;;;;3.70;2.78;;;;;;;16.26;47.60;100922.66;10181606;29;20104;-62
2023/04/19 09:51:55;;;;;;;3.33;2.28;;;;;;;16.49;46.54;100907.94;10154817;29;20116;-64
2023/04/19 09:56:57;;;;;;;2.53;1.80;;;;;;;16.26;46.23;100917.25;10141314;29;20458;-64
2023/04/19 10:02:04;;;;;;;3.38;2.42;;;;;;;16.29;45.94;100903.28;10146575;29;20048;-64
2023/04/19 10:07:06;;;;;;;4.40;2.85;;;;;;;16.15;45.50;100898.78;10151369;29;20060;-63
2023/04/19 10:12:30;;;;;;;3.13;2.55;;;;;;;16.25;45.05;100897.41;10151266;29;20056;-64
2023/04/19 10:17:52;;;;;;;5.20;2.72;;;;;;;16.26;44.74;100903.66;10120115;29;20050;-65
2023/04/19 10:22:54;;;;;;;3.88;2.00;;;;;;;16.38;44.47;100885.78;10136592;29;20063;-65
2023/04/19 10:27:56;;;;;;;6.10;2.83;;;;;;;16.41;43.89;100881.81;10147659;29;20052;-64
2023/04/19 10:33:01;;;;;;;3.45;2.22;;;;;;;16.42;43.68;100887.06;10151509;29;20535;-63
2023/04/19 10:38:07;;;;;;;2.88;1.75;;;;;;;16.98;42.94;100883.34;10148630;29;20076;-62
2023/04/19 10:43:11;;;;;;;4.15;1.33;;;;;;;17.19;41.77;100868.75;10150480;29;20383;-61
2023/04/19 10:48:34;;;;;;;5.72;2.13;;;;;;;17.63;41.08;100871.91;10149765;29;20558;-63
2023/04/19 10:53:52;;;;;;;3.00;1.77;;;;;;;17.81;40.98;100873.97;10142096;29;20075;-63
2023/04/19 10:59:10;;;;;;;3.40;1.88;;;;;;;17.80;40.45;100850.56;10143580;29;20044;-64
2023/04/19 11:04:16;;;;;;;1.92;1.60;;;;;;;18.11;39.71;100846.31;10143274;29;20408;-64
2023/04/19 11:09:22;;;;;;;3.90;1.35;;;;;;;18.20;38.49;100842.31;10138476;29;20059;-64
2023/04/19 11:14:24;;;;;;;1.17;1.00;;;;;;;18.34;37.69;100837.69;10141089;29;20079;-64
2023/04/19 11:19:25;;;;;;;2.50;0.93;;;;;;;18.30;36.83;100836.44;10144403;29;20049;-63
2023/04/19 11:24:26;;;;;;;2.45;1.00;;;;;;;18.47;36.44;100820.47;10142543;29;20075;-62
2023/04/19 11:29:28;;;;;;;2.33;1.08;;;;;;;18.56;36.19;100820.00;10127423;29;20055;-63
2023/04/19 11:34:35;;;;;;;1.98;1.05;;;;;;;18.68;35.24;100805.69;10145990;29;20111;-63
2023/04/19 11:39:45;;;;;;;1.73;1.00;;;;;;;18.88;34.58;100814.63;10145533;29;20125;-63
2023/04/19 11:44:51;;;;;;;1.25;1.00;;;;;;;19.07;34.05;100793.72;10143836;29;20044;-64
2023/04/19 11:49:55;;;;;;;3.85;2.00;;;;;;;19.00;33.64;100790.22;10142211;29;20076;-62
2023/04/19 11:55:17;;;;;;;1.98;0.80;;;;;;;19.12;32.99;100793.06;10138781;29;20060;-63
2023/04/19 12:00:27;;;;;;;1.63;0.82;;;;;;;19.13;31.92;100779.19;10141928;29;20079;-63
2023/04/19 12:05:30;;;;;;;1.75;0.50;;;;;;;19.38;31.73;100781.09;10134260;29;20165;-63
2023/04/19 12:10:31;;;;;;;1.00;0.40;;;;;;;19.44;31.22;100771.19;10154535;29;20257;-63
2023/04/19 12:15:41;;;;;;;1.80;0.50;;;;;;;19.57;30.75;100766.44;10154522;29;20059;-63
2023/04/19 12:20:45;;;;;;;1.15;0.45;;;;;;;20.09;29.64;100762.53;10154492;29;20072;-63
2023/04/19 12:25:47;;;;;;;4.60;0.50;;;;;;;20.43;29.02;100758.31;10150293;29;20071;-64
2023/04/19 12:30:49;;;;;;;1.48;0.47;;;;;;;20.54;29.05;100754.78;10150205;29;20056;-63
2023/04/19 12:35:50;;;;;;;2.17;0.30;;;;;;;20.56;28.29;100751.84;10151591;29;20131;-64
2023/04/19 12:40:51;;;;;;;1.85;0.40;;;;;;;20.55;27.83;100744.69;10141016;29;20127;-64
2023/04/19 12:45:53;;;;;;;1.88;0.40;;;;;;;20.68;27.10;100750.00;10151765;29;20056;-64
2023/04/19 12:50:54;;;;;;;0.32;0.20;;;;;;;20.64;26.69;100743.34;10155020;29;20048;-67
2023/04/19 12:55:56;;;;;;;0.80;0.35;;;;;;;20.80;26.43;100736.38;10147368;29;20484;-59
2023/04/19 13:00:57;;;;;;;4.78;0.32;;;;;;;21.10;25.70;100730.00;10155430;29;20053;-60
2023/04/19 13:05:58;;;;;;;0.80;0.30;;;;;;;20.76;25.03;100727.81;10165001;29;20052;-60
2023/04/19 13:11:00;;;;;;;0.45;0.30;;;;;;;21.00;24.98;100725.94;10161284;29;20056;-59
2023/04/19 13:16:01;;;;;;;5.55;1.05;;;;;;;21.31;24.79;100721.22;10157332;29;20049;-63
2023/04/19 13:21:03;;;;;;;1.83;0.40;;;;;;;21.63;24.38;100700.88;10145532;29;20052;-62
2023/04/19 13:26:08;;;;;;;2.53;0.10;;;;;;;21.94;23.82;100700.44;10141867;29;20052;-62
2023/04/19 13:31:10;;;;;;;1.95;0.22;;;;;;;21.92;23.43;100693.50;10136684;29;20052;-63
2023/04/19 13:36:11;;;;;;;0.30;0.30;;;;;;;22.07;22.70;100687.53;10151625;29;20661;-64
2023/04/19 13:41:12;;;;;;;0.43;0.30;;;;;;;22.12;22.81;100677.50;10139195;29;20052;-64
2023/04/19 13:46:14;;;;;;;0.47;0.28;;;;;;;22.21;22.56;100683.41;10150939;29;20111;-64
2023/04/19 13:51:15;;;;;;;2.78;0.40;;;;;;;22.25;22.31;100667.34;10147821;29;20456;-63
2023/04/19 13:56:17;;;;;;;0.50;0.30;;;;;;;22.31;22.22;100669.09;10147981;29;20112;-63
2023/04/19 14:01:18;;;;;;;0.65;0.30;;;;;;;22.30;22.08;100657.34;10156088;29;20048;-59
2023/04/19 14:06:19;;;;;;;1.83;0.28;;;;;;;22.43;22.00;100667.13;10146348;29;20434;-64
2023/04/19 14:11:22;;;;;;;0.40;0.30;;;;;;;22.48;21.95;100667.22;10146843;29;20052;-63
2023/04/19 14:16:24;;;;;;;0.63;0.32;;;;;;;23.06;21.70;100667.09;10143642;29;20085;-63
2023/04/19 14:21:26;;;;;;;0.73;0.60;;;;;;;23.36;21.21;100670.28;10127575;29;20393;-63
2023/04/19 14:26:28;;;;;;;3.45;0.40;;;;;;;24.18;20.63;100670.47;10143299;29;20116;-64
2023/04/19 14:31:30;;;;;;;1.83;0.40;;;;;;;25.65;19.56;100651.75;10148857;29;20052;-63
2023/04/19 14:36:31;;;;;;;0.60;0.30;;;;;;;26.42;18.51;100647.31;10143014;29;20144;-64
2023/04/19 14:41:33;;;;;;;1.50;0.30;;;;;;;26.49;18.18;100641.53;10143506;29;20075;-64
2023/04/19 14:46:34;;;;;;;1.30;0.45;;;;;;;25.93;18.63;100642.28;10146538;29;20056;-63
2023/04/19 14:51:36;;;;;;;1.60;0.40;;;;;;;24.83;19.10;100643.84;10146246;29;20131;-63
2023/04/19 14:56:37;;;;;;;1.65;0.45;;;;;;;24.29;20.22;100639.25;10144213;29;20053;-63
2023/04/19 15:01:38;;;;;;;3.33;0.40;;;;;;;23.36;20.38;100637.38;10146894;29;20051;-63
2023/04/19 15:06:40;;;;;;;1.88;0.40;;;;;;;22.32;21.07;100638.75;10142699;29;20151;-63
2023/04/19 15:11:41;;;;;;;1.38;0.40;;;;;;;21.86;21.76;100640.59;10141256;29;20063;-63
2023/04/19 15:16:43;;;;;;;2.72;0.43;;;;;;;22.00;21.68;100635.66;10145011;29;20083;-63
2023/04/19 15:21:44;;;;;;;0.90;0.30;;;;;;;21.79;21.55;100632.50;10129154;29;20123;-63
2023/04/19 15:26:45;;;;;;;3.15;0.50;;;;;;;21.33;22.34;100634.28;10124944;29;20135;-63
2023/04/19 15:31:47;;;;;;;1.00;0.50;;;;;;;21.41;22.52;100627.63;10147704;29;20507;-63
2023/04/19 15:36:48;;;;;;;1.02;0.43;;;;;;;21.77;22.36;100623.72;10126602;29;20052;-63
2023/04/19 15:41:50;;;;;;;2.08;0.50;;;;;;;21.84;22.17;100620.84;10138969;29;20140;-62
2023/04/19 15:46:52;;;;;;;1.92;0.50;;;;;;;21.32;22.84;100623.56;10141917;29;20129;-62
2023/04/19 15:51:53;;;;;;;1.83;0.50;;;;;;;20.94;23.99;100633.94;10144359;29;20064;-62
2023/04/19 15:56:56;;;;;;;2.67;0.60;;;;;;;20.65;24.56;100637.63;10145892;29;20087;-62
2023/04/19 16:01:57;;;;;;;6.00;0.50;;;;;;;20.18;24.92;100641.03;10142419;29;20500;-63
2023/04/19 16:06:59;;;;;;;2.10;0.52;;;;;;;19.73;25.14;100636.84;10139753;29;20088;-62
2023/04/19 16:12:00;;;;;;;1.45;0.60;;;;;;;19.44;25.43;100643.03;10143479;29;20060;-62
2023/04/19 16:17:02;;;;;;;1.70;0.60;;;;;;;19.29;25.60;100646.13;10127717;29;20088;-64
2023/04/19 16:22:04;;;;;;;3.95;0.80;;;;;;;19.09;25.79;100644.44;10139986;29;20088;-63
2023/04/19 16:27:05;;;;;;;3.45;0.80;;;;;;;18.72;26.25;100649.81;10143200;29;20098;-63
2023/04/19 16:32:07;;;;;;;1.88;0.65;;;;;;;18.56;26.25;100650.34;10139513;29;20071;-63
2023/04/19 16:37:08;;;;;;;1.40;0.60;;;;;;;18.22;26.57;100658.72;10139630;29;20048;-64
2023/04/19 16:42:10;;;;;;;2.92;0.50;;;;;;;17.80;26.95;100658.31;10146205;29;20083;-60
2023/04/19 16:47:11;;;;;;;2.88;0.70;;;;;;;17.61;27.12;100648.34;10154253;29;20135;-61
2023/04/19 16:52:12;;;;;;;0.98;0.68;;;;;;;17.48;27.28;100653.84;10144950;29;20086;-63
2023/04/19 16:57:14;;;;;;;2.60;0.52;;;;;;;17.27;27.57;100650.34;10146877;29;20139;-64
2023/04/19 17:02:15;;;;;;;2.58;0.70;;;;;;;17.02;27.25;100645.59;10145741;29;20108;-62
2023/04/19 17:07:17;;;;;;;1.98;0.70;;;;;;;16.93;27.27;100641.41;10150776;29;20052;-62
2023/04/19 17:12:18;;;;;;;2.97;0.82;;;;;;;16.77;27.84;100650.78;10148635;29;20496;-62
2023/04/19 17:17:20;;;;;;;1.17;0.63;;;;;;;16.94;27.64;100651.25;10143501;29;20056;-62
2023/04/19 17:22:21;;;;;;;4.25;0.80;;;;;;;17.05;27.76;100652.47;10147068;29;20409;-62
2023/04/19 17:27:23;;;;;;;3.38;0.57;;;;;;;16.88;28.18;100653.94;10148674;29;20147;-61
2023/04/19 17:32:25;;;;;;;2.70;0.70;;;;;;;16.74;28.25;100648.47;10143857;29;20139;-62
2023/04/19 17:37:26;;;;;;;2.28;0.68;;;;;;;16.65;28.79;100653.31;10144486;29;20113;-62
2023/04/19 17:42:27;;;;;;;3.83;0.60;;;;;;;16.53;29.08;100654.97;10150161;29;20473;-62
2023/04/19 17:47:29;;;;;;;2.70;0.63;;;;;;;16.44;29.47;100654.31;10147855;29;20048;-62
2023/04/19 17:52:30;;;;;;;2.13;0.70;;;;;;;16.32;29.78;100653.25;10143417;29;20047;-62
2023/04/19 17:57:32;;;;;;;3.53;1.30;;;;;;;16.12;29.99;100652.41;10148473;29;20144;-63
2023/04/19 18:02:34;;;;;;;3.53;0.70;;;;;;;15.96;30.24;100661.75;10142443;29;20062;-63
2023/04/19 18:07:36;;;;;;;1.23;0.60;;;;;;;15.76;30.29;100656.25;10141775;29;20080;-63
2023/04/19 18:12:37;;;;;;;3.17;0.63;;;;;;;15.56;30.71;100656.97;10141938;29;20052;-64
2023/04/19 18:17:39;;;;;;;3.45;0.70;;;;;;;15.35;30.95;100665.19;10135244;29;20087;-63
2023/04/19 18:22:41;;;;;;;4.03;0.73;;;;;;;15.17;31.41;100655.72;10135224;29;20148;-64
2023/04/19 18:27:43;;;;;;;1.35;0.55;;;;;;;14.96;31.44;100661.19;10140114;29;20048;-64
2023/04/19 18:32:46;;;;;;;0.90;0.55;;;;;;;14.75;31.95;100662.91;10159758;29;20056;-64
2023/04/19 18:37:47;;;;;;;1.73;0.70;;;;;;;14.55;32.04;100669.97;10138741;29;20044;-64
2023/04/19 18:42:49;;;;;;;4.57;1.45;;;;;;;14.34;32.78;100668.97;10147131;29;20100;-63
2023/04/19 18:47:50;;;;;;;3.47;2.28;;;;;;;14.18;33.16;100663.78;10153659;29;20112;-64
2023/04/19 18:52:51;;;;;;;1.65;0.70;;;;;;;13.95;33.29;100667.50;10156845;29;20052;-63
2023/04/19 18:57:53;;;;;;;1.98;0.75;;;;;;;13.73;33.51;100665.78;10154036;29;20060;-61
2023/04/19 19:02:56;;;;;;;3.35;0.80;;;;;;;13.52;34.40;100680.03;10153472;29;20055;-61
2023/04/19 19:07:58;;;;;;;4.15;0.80;;;;;;;13.32;33.90;100685.16;10145304;29;20473;-62
2023/04/19 19:13:00;;;;;;;4.90;2.08;;;;;;;13.06;34.92;100689.94;10154076;29;20152;-61
2023/04/19 19:18:02;;;;;;;2.95;1.20;;;;;;;12.77;35.17;100692.59;10147762;29;20060;-61
2023/04/19 19:23:03;;;;;;;2.13;1.08;;;;;;;12.59;35.36;100692.91;10147912;29;20123;-61
2023/04/19 19:28:05;;;;;;;4.18;1.33;;;;;;;12.43;35.57;100702.78;10152395;29;20052;-61
2023/04/19 19:33:10;;;;;;;2.50;0.80;;;;;;;12.28;35.80;100693.78;10169528;29;20048;-61
2023/04/19 19:38:12;;;;;;;1.65;1.08;;;;;;;12.18;36.48;100698.56;10154830;29;20107;-62
2023/04/19 19:43:13;;;;;;;3.50;0.90;;;;;;;11.98;36.61;100704.41;10147448;29;20072;-62
2023/04/19 19:48:15;;;;;;;4.78;1.33;;;;;;;11.83;36.93;100701.59;10127276;29;20056;-61
2023/04/19 19:53:16;;;;;;;3.33;1.00;;;;;;;11.71;36.94;100697.63;10163784;29;20052;-60
2023/04/19 19:58:19;;;;;;;4.57;1.35;;;;;;;11.58;37.61;100700.84;10157850;29;20058;-61
2023/04/19 20:03:40;;;;;;;2.10;1.02;;;;;;;11.45;37.80;100697.88;10151395;29;20059;-62
2023/04/19 20:08:42;;;;;;;4.45;1.23;;;;;;;11.35;38.05;100708.00;10155612;29;20052;-62
2023/04/19 20:13:45;;;;;;;4.10;1.20;;;;;;;11.26;38.66;100702.63;10148911;29;20056;-62
2023/04/19 20:18:47;;;;;;;4.07;1.55;;;;;;;11.20;38.93;100706.03;10152361;29;20048;-61
2023/04/19 20:23:49;;;;;;;4.78;1.35;;;;;;;11.15;38.88;100697.59;10135355;29;20057;-63
2023/04/19 20:28:51;;;;;;;3.28;1.45;;;;;;;11.07;39.03;100690.38;10166582;29;20052;-63
2023/04/19 20:33:52;;;;;;;3.42;1.80;;;;;;;11.03;39.39;100693.59;10168208;29;20060;-62
2023/04/19 20:38:55;;;;;;;3.58;1.48;;;;;;;10.97;39.73;100691.59;10168653;29;20052;-64
2023/04/19 20:43:58;;;;;;;4.18;1.35;;;;;;;10.91;39.72;100679.66;10170547;29;20052;-62
2023/04/19 20:48:59;;;;;;;3.35;1.40;;;;;;;10.82;40.00;100686.06;10169601;29;20045;-62
2023/04/19 20:54:01;;;;;;;2.60;1.30;;;;;;;10.74;40.15;100673.44;10164012;29;20052;-62
2023/04/19 20:59:02;;;;;;;4.35;1.63;;;;;;;10.69;40.28;100673.97;10170367;29;20052;-62
2023/04/19 21:04:04;;;;;;;4.60;1.67;;;;;;;10.65;40.35;100678.00;10172936;29;20141;-62
2023/04/19 21:09:05;;;;;;;7.63;2.00;;;;;;;10.55;40.66;100668.44;10175313;29;20543;-62
2023/04/19 21:14:07;;;;;;;8.90;2.17;;;;;;;10.41;40.80;100665.41;10172159;29;20402;-62
2023/04/19 21:19:08;;;;;;;2.63;1.17;;;;;;;10.40;40.83;100670.94;10171074;29;20051;-62
2023/04/19 21:24:09;;;;;;;2.20;1.20;;;;;;;10.39;40.93;100666.59;10167420;29;20064;-62
2023/04/19 21:29:11;;;;;;;4.28;1.20;;;;;;;10.42;40.66;100653.63;10179347;29;20060;-61
2023/04/19 21:34:12;;;;;;;3.13;1.52;;;;;;;10.41;40.63;100656.50;10172700;29;20052;-62
2023/04/19 21:39:14;;;;;;;4.43;1.55;;;;;;;10.41;40.88;100657.34;10177946;29;20044;-62
2023/04/19 21:44:16;;;;;;;4.05;1.45;;;;;;;10.39;40.87;100645.91;10177269;29;20116;-61
2023/04/19 21:49:18;;;;;;;5.75;1.35;;;;;;;10.37;40.94;100639.88;10178658;29;20074;-62
2023/04/19 21:54:20;;;;;;;2.28;0.85;;;;;;;10.37;41.26;100641.69;10180257;29;20049;-62
2023/04/19 21:59:36;;;;;;;6.95;1.10;;;;;;;10.31;41.47;100643.22;10172492;29;20056;-62
2023/04/19 22:04:38;;;;;;;3.15;1.63;;;;;;;10.21;41.84;100631.75;10173712;29;20044;-61
2023/04/19 22:09:39;;;;;;;5.63;1.55;;;;;;;10.12;41.88;100622.84;10175328;29;20044;-61
2023/04/19 22:14:41;;;;;;;4.07;1.75;;;;;;;10.01;42.49;100624.03;10173646;29;20056;-61
2023/04/19 22:19:42;;;;;;;4.63;2.47;;;;;;;9.95;42.61;100621.16;10175829;29;20093;-62
2023/04/19 22:24:44;;;;;;;5.18;2.63;;;;;;;9.83;42.78;100616.09;10171769;29;20044;-61
2023/04/19 22:29:58;;;;;;;5.80;1.48;;;;;;;9.80;42.71;100615.59;10175076;29;20089;-62
2023/04/19 22:34:59;;;;;;;4.63;1.98;;;;;;;9.77;42.59;100605.19;10177474;29;20111;-61
2023/04/19 22:40:01;;;;;;;4.28;1.63;;;;;;;9.77;42.83;100606.00;10174302;29;20056;-61
2023/04/19 22:45:02;;;;;;;3.92;1.42;;;;;;;9.71;42.73;100596.75;10177345;29;20057;-62
2023/04/19 22:50:04;;;;;;;3.58;1.27;;;;;;;9.66;42.90;100593.75;10172196;29;20477;-62
2023/04/19 22:55:06;;;;;;;3.17;1.30;;;;;;;9.65;42.86;100588.53;10162605;29;20089;-61
2023/04/19 23:00:11;;;;;;;9.25;1.90;;;;;;;9.64;43.17;100578.81;10174398;29;20089;-62
2023/04/19 23:05:12;;;;;;;2.95;1.60;;;;;;;9.61;43.05;100579.97;10174537;29;20053;-61